createdAt,value
2022-12-18T00:02:09.211Z,3.33
2022-12-18T00:05:00.626Z,3.55
2022-12-18T00:07:56.887Z,3.63
2022-12-18T00:10:37.424Z,3.22
2022-12-18T00:13:17.768Z,3.28
2022-12-18T00:16:14.976Z,2.97
2022-12-18T00:18:44.013Z,2.97
2022-12-18T00:21:36.053Z,2.80
2022-12-18T00:24:24.990Z,2.65
2022-12-18T00:27:21.535Z,3.00
2022-12-18T00:30:11.164Z,3.22
2022-12-18T00:33:09.924Z,2.88
2022-12-18T00:35:58.561Z,2.80
2022-12-18T00:38:33.199Z,3.05
2022-12-18T00:41:29.640Z,2.38
2022-12-18T00:44:12.600Z,3.00
2022-12-18T00:46:58.718Z,2.80
2022-12-18T00:49:47.179Z,3.00
2022-12-18T00:52:18.456Z,3.10
2022-12-18T00:54:47.209Z,3.28
2022-12-18T00:57:38.667Z,2.92
2022-12-18T01:00:27.956Z,3.10
2022-12-18T01:03:18.140Z,2.88
2022-12-18T01:06:15.056Z,3.25
2022-12-18T01:08:55.746Z,3.15
2022-12-18T01:11:54.231Z,3.40
2022-12-18T01:14:42.820Z,2.80
2022-12-18T01:17:26.130Z,2.35
2022-12-18T01:20:16.895Z,3.00
2022-12-18T01:22:47.261Z,2.97
2022-12-18T01:25:45.274Z,2.70
2022-12-18T01:28:34.209Z,2.53
2022-12-18T01:31:15.097Z,3.00
2022-12-18T01:34:19.357Z,2.65
2022-12-18T01:36:54.820Z,2.95
2022-12-18T01:39:52.083Z,2.97
2022-12-18T01:42:38.203Z,3.10
2022-12-18T01:45:17.801Z,3.33
2022-12-18T01:48:09.325Z,3.03
2022-12-18T01:51:10.809Z,2.83
2022-12-18T01:54:00.004Z,2.83
2022-12-18T01:56:51.285Z,3.08
2022-12-18T01:59:18.987Z,3.10
2022-12-18T02:05:05.500Z,3.08
2022-12-18T02:08:12.988Z,3.28
2022-12-18T02:11:12.179Z,2.92
2022-12-18T02:17:32.645Z,3.20
2022-12-18T02:20:07.459Z,3.30
2022-12-18T02:23:01.890Z,3.60
2022-12-18T02:26:55.806Z,3.50
2022-12-18T02:29:57.645Z,3.80
2022-12-18T02:32:27.180Z,3.90
2022-12-18T02:35:27.241Z,3.72
2022-12-18T02:38:11.130Z,4.03
2022-12-18T02:41:09.941Z,4.05
2022-12-18T02:43:50.709Z,3.88
2022-12-18T02:46:42.144Z,3.22
2022-12-18T02:49:59.504Z,3.53
2022-12-18T02:53:15.039Z,3.60
2022-12-18T02:56:09.000Z,3.85
2022-12-18T02:59:11.294Z,4.18
2022-12-18T03:01:57.763Z,4.05
2022-12-18T03:04:58.621Z,4.10
2022-12-18T03:08:01.652Z,3.95
2022-12-18T03:11:14.309Z,3.92
2022-12-18T03:14:01.246Z,2.55
2022-12-18T03:16:48.151Z,3.50
2022-12-18T03:19:40.648Z,3.20
2022-12-18T03:22:47.159Z,3.25
2022-12-18T03:25:06.145Z,3.03
2022-12-18T03:28:06.861Z,3.15
2022-12-18T03:30:50.368Z,2.92
2022-12-18T03:34:01.410Z,2.63
2022-12-18T03:37:05.725Z,2.67
2022-12-18T03:39:56.532Z,3.00
2022-12-18T03:42:32.207Z,2.92
2022-12-18T03:45:47.578Z,2.88
2022-12-18T03:48:42.945Z,3.00
2022-12-18T03:51:49.986Z,2.92
2022-12-18T03:54:27.447Z,3.25
2022-12-18T03:57:52.354Z,2.72
2022-12-18T04:00:51.495Z,2.70
2022-12-18T04:03:32.421Z,3.55
2022-12-18T04:06:38.995Z,2.88
2022-12-18T04:08:51.408Z,3.05
2022-12-18T04:11:56.617Z,3.10
2022-12-18T04:14:39.731Z,3.40
2022-12-18T04:17:16.119Z,3.25
2022-12-18T04:20:06.536Z,3.22
2022-12-18T04:22:43.645Z,3.78
2022-12-18T04:25:37.666Z,3.20
2022-12-18T04:28:34.697Z,2.75
2022-12-18T04:31:23.361Z,2.83
2022-12-18T04:34:12.310Z,2.40
2022-12-18T04:37:06.585Z,2.75
2022-12-18T04:40:03.846Z,2.50
2022-12-18T04:42:53.646Z,2.88
2022-12-18T04:45:42.322Z,2.75
2022-12-18T04:48:30.934Z,2.63
2022-12-18T04:51:27.426Z,2.33
2022-12-18T04:53:56.552Z,2.58
2022-12-18T04:56:48.861Z,3.00
2022-12-18T04:59:19.259Z,2.80
2022-12-18T05:02:17.337Z,2.85
2022-12-18T05:04:57.969Z,2.67
2022-12-18T05:07:40.758Z,2.50
2022-12-18T05:10:37.730Z,2.80
2022-12-18T05:13:31.200Z,2.95
2022-12-18T05:16:01.193Z,2.85
2022-12-18T05:18:59.775Z,2.83
2022-12-18T05:21:40.415Z,2.85
2022-12-18T05:24:44.550Z,2.80
2022-12-18T05:27:17.765Z,2.67
2022-12-18T05:30:07.701Z,2.90
2022-12-18T05:32:54.641Z,2.70
2022-12-18T05:35:51.278Z,2.80
2022-12-18T05:38:31.791Z,2.83
2022-12-18T05:41:20.905Z,2.83
2022-12-18T05:44:17.566Z,2.90
2022-12-18T05:46:58.207Z,2.78
2022-12-18T05:50:01.992Z,3.22
2022-12-18T05:52:36.777Z,3.53
2022-12-18T05:55:23.667Z,3.83
2022-12-18T05:58:11.983Z,3.50
2022-12-18T06:01:09.566Z,4.05
2022-12-18T06:04:08.883Z,3.92
2022-12-18T06:06:23.404Z,4.05
2022-12-18T06:09:22.483Z,3.55
2022-12-18T06:12:18.646Z,3.72
2022-12-18T06:14:59.607Z,4.30
2022-12-18T06:17:55.720Z,4.43
2022-12-18T06:20:38.358Z,3.40
2022-12-18T06:23:01.846Z,3.22
2022-12-18T06:25:54.338Z,2.83
2022-12-18T06:28:19.378Z,3.10
2022-12-18T06:31:20.056Z,2.97
2022-12-18T06:33:50.593Z,3.15
2022-12-18T06:36:56.486Z,3.38
2022-12-18T06:39:29.854Z,3.60
2022-12-18T06:42:18.614Z,3.50
2022-12-18T06:45:09.474Z,3.25
2022-12-18T06:48:10.841Z,3.10
2022-12-18T06:50:44.002Z,3.17
2022-12-18T06:53:12.257Z,2.92
2022-12-18T06:56:06.529Z,3.20
2022-12-18T06:58:51.069Z,3.28
2022-12-18T07:01:40.887Z,3.28
2022-12-18T07:04:30.743Z,3.17
2022-12-18T07:07:07.439Z,3.15
2022-12-18T07:09:59.043Z,3.03
2022-12-18T07:12:34.141Z,3.05
2022-12-18T07:15:13.247Z,3.65
2022-12-18T07:18:03.484Z,3.17
2022-12-18T07:20:31.077Z,3.20
2022-12-18T07:23:29.087Z,3.25
2022-12-18T07:26:14.276Z,3.40
2022-12-18T07:29:02.311Z,3.25
2022-12-18T07:31:50.474Z,3.65
2022-12-18T07:34:38.912Z,2.78
2022-12-18T07:37:27.600Z,3.22
2022-12-18T07:40:16.490Z,3.58
2022-12-18T07:43:07.077Z,3.95
2022-12-18T07:45:53.274Z,3.47
2022-12-18T07:48:50.451Z,3.22
2022-12-18T07:51:38.839Z,3.90
2022-12-18T07:54:20.602Z,3.60
2022-12-18T07:57:21.236Z,3.67
2022-12-18T07:59:57.754Z,3.08
2022-12-18T08:02:54.489Z,3.20
2022-12-18T08:05:24.109Z,2.90
2022-12-18T08:08:14.294Z,3.13
2022-12-18T08:11:10.604Z,3.42
2022-12-18T08:13:51.994Z,3.25
2022-12-18T08:16:50.179Z,4.15
2022-12-18T08:19:30.817Z,4.28
2022-12-18T08:22:00.103Z,5.07
2022-12-18T08:24:58.096Z,4.95
2022-12-18T08:27:54.006Z,5.75
2022-12-18T08:30:36.266Z,4.28
2022-12-18T08:33:16.069Z,3.35
2022-12-18T08:36:08.473Z,5.18
2022-12-18T08:38:39.594Z,4.15
2022-12-18T08:42:05.402Z,4.82
2022-12-18T08:44:53.984Z,4.05
2022-12-18T08:47:56.345Z,5.18
2022-12-18T08:50:29.787Z,4.72
2022-12-18T08:53:18.472Z,4.75
2022-12-18T08:55:50.214Z,4.20
2022-12-18T08:58:55.247Z,6.10
2022-12-18T09:01:53.082Z,5.85
2022-12-18T09:04:57.787Z,4.88
2022-12-18T09:07:28.838Z,3.42
2022-12-18T09:10:17.224Z,4.40
2022-12-18T09:13:06.362Z,4.85
2022-12-18T09:15:33.535Z,4.97
2022-12-18T09:18:23.468Z,4.25
2022-12-18T09:21:13.580Z,5.07
2022-12-18T09:24:02.217Z,4.78
2022-12-18T09:26:58.625Z,4.25
2022-12-18T09:29:49.963Z,4.50
2022-12-18T09:32:07.260Z,4.57
2022-12-18T09:35:05.263Z,4.03
2022-12-18T09:37:48.911Z,4.20
2022-12-18T09:40:43.366Z,4.03
2022-12-18T09:43:26.407Z,4.70
2022-12-18T09:46:23.565Z,5.07
2022-12-18T09:49:14.927Z,4.30
2022-12-18T09:52:02.948Z,4.00
2022-12-18T09:54:48.315Z,3.95
2022-12-18T09:57:44.319Z,4.43
2022-12-18T10:00:50.531Z,5.03
2022-12-18T10:03:51.839Z,4.70
2022-12-18T10:06:42.061Z,4.93
2022-12-18T10:09:59.689Z,3.95
2022-12-18T10:13:06.050Z,4.18
2022-12-18T10:15:47.747Z,5.30
2022-12-18T10:18:58.577Z,4.93
2022-12-18T10:22:01.162Z,5.70
2022-12-18T10:24:58.649Z,5.22
2022-12-18T10:27:51.434Z,6.03
2022-12-18T10:30:48.048Z,8.00
2022-12-18T10:33:38.484Z,7.85
2022-12-18T10:36:07.422Z,6.88
2022-12-18T10:38:58.088Z,5.40
2022-12-18T10:41:57.978Z,5.53
2022-12-18T10:44:54.918Z,5.57
2022-12-18T10:47:23.585Z,4.78
2022-12-18T10:50:40.728Z,5.63
2022-12-18T10:53:22.300Z,5.20
2022-12-18T10:56:13.917Z,6.00
2022-12-18T10:59:04.749Z,6.50
2022-12-18T11:01:45.559Z,7.38
2022-12-18T11:04:20.039Z,6.00
2022-12-18T11:07:44.488Z,6.60
2022-12-18T11:10:05.732Z,7.28
2022-12-18T11:13:03.313Z,10.82
2022-12-18T11:16:00.617Z,7.00
2022-12-18T11:19:05.914Z,7.13
2022-12-18T11:21:27.880Z,8.30
2022-12-18T11:24:18.065Z,7.22
2022-12-18T11:27:06.904Z,6.50
2022-12-18T11:29:44.926Z,6.72
2022-12-18T11:33:08.735Z,5.88
2022-12-18T11:35:53.637Z,7.07
2022-12-18T11:39:02.477Z,6.70
2022-12-18T11:42:23.138Z,6.60
2022-12-18T11:45:44.039Z,6.60
2022-12-18T11:48:48.632Z,6.63
2022-12-18T11:51:29.501Z,6.72
2022-12-18T11:54:03.046Z,5.68
2022-12-18T11:57:02.874Z,5.70
2022-12-18T12:00:30.106Z,5.28
2022-12-18T12:03:28.225Z,5.40
2022-12-18T12:06:16.934Z,6.10
2022-12-18T12:09:34.145Z,5.15
2022-12-18T12:12:45.223Z,5.22
2022-12-18T12:15:56.711Z,5.05
2022-12-18T12:19:14.475Z,6.20
2022-12-18T12:22:20.488Z,5.55
2022-12-18T12:25:13.699Z,8.30
2022-12-18T12:28:35.337Z,8.30
2022-12-18T12:31:38.855Z,8.13
2022-12-18T12:35:01.757Z,6.65
2022-12-18T12:37:32.283Z,7.47
2022-12-18T12:43:54.730Z,9.35
2022-12-18T12:46:37.611Z,7.28
2022-12-18T12:49:35.243Z,7.72
2022-12-18T12:52:28.705Z,9.50
2022-12-18T12:55:18.344Z,8.15
2022-12-18T12:58:48.681Z,10.05
2022-12-18T13:02:03.459Z,11.68
2022-12-18T13:04:31.683Z,10.77
2022-12-18T13:07:27.974Z,11.05
2022-12-18T13:10:50.182Z,11.90
2022-12-18T13:13:08.154Z,12.25
2022-12-18T13:16:49.524Z,12.95
2022-12-18T13:19:24.512Z,12.60
2022-12-18T13:21:56.499Z,12.82
2022-12-18T13:24:54.289Z,13.40
2022-12-18T13:28:15.328Z,12.57
2022-12-18T13:30:57.409Z,13.18
2022-12-18T13:34:17.022Z,12.32
2022-12-18T13:36:53.837Z,12.55
2022-12-18T13:39:57.699Z,12.15
2022-12-18T13:42:46.989Z,11.90
2022-12-18T13:45:24.579Z,11.77
2022-12-18T13:48:08.386Z,11.45
2022-12-18T13:51:05.202Z,10.82
2022-12-18T13:54:01.669Z,11.02
2022-12-18T13:56:41.277Z,10.10
2022-12-18T13:59:53.966Z,10.63
2022-12-18T14:02:48.511Z,9.43
2022-12-18T14:05:45.316Z,9.80
2022-12-18T14:08:37.826Z,9.95
2022-12-18T14:11:36.215Z,8.95
2022-12-18T14:14:17.973Z,11.73
2022-12-18T14:17:22.034Z,9.40
2022-12-18T14:20:13.325Z,9.30
2022-12-18T14:22:55.335Z,8.40
2022-12-18T14:25:53.450Z,8.98
2022-12-18T14:28:37.486Z,8.52
2022-12-18T14:31:35.272Z,8.13
2022-12-18T14:34:16.785Z,7.78
2022-12-18T14:37:16.633Z,7.50
2022-12-18T14:40:10.644Z,7.30
2022-12-18T14:42:57.373Z,8.10
2022-12-18T14:46:20.285Z,8.18
2022-12-18T14:49:13.870Z,7.80
2022-12-18T14:52:03.785Z,8.88
2022-12-18T14:54:57.543Z,8.93
2022-12-18T14:57:48.469Z,8.95
2022-12-18T15:00:44.843Z,9.18
2022-12-18T15:03:11.587Z,9.33
2022-12-18T15:06:09.620Z,9.82
2022-12-18T15:08:39.677Z,10.45
2022-12-18T15:11:37.381Z,9.48
2022-12-18T15:15:03.084Z,9.57
2022-12-18T15:18:01.742Z,12.25
2022-12-18T15:20:50.507Z,12.40
2022-12-18T15:23:23.905Z,13.98
2022-12-18T15:26:19.854Z,13.27
2022-12-18T15:29:23.442Z,15.02
2022-12-18T15:32:24.432Z,11.82
2022-12-18T15:34:53.701Z,11.52
2022-12-18T15:37:43.731Z,13.55
2022-12-18T15:40:28.878Z,12.45
2022-12-18T15:43:40.788Z,11.52
2022-12-18T15:46:42.382Z,11.45
2022-12-18T15:49:38.529Z,11.20
2022-12-18T15:52:33.015Z,11.45
2022-12-18T15:55:24.353Z,10.77
2022-12-18T15:58:28.113Z,10.07
2022-12-18T16:01:11.604Z,10.25
2022-12-18T16:04:01.352Z,10.68
2022-12-18T16:07:12.823Z,8.98
2022-12-18T16:09:46.639Z,9.23
2022-12-18T16:12:04.620Z,8.25
2022-12-18T16:14:55.390Z,8.77
2022-12-18T16:17:43.931Z,9.70
2022-12-18T16:20:40.519Z,9.60
2022-12-18T16:23:18.686Z,10.38
2022-12-18T16:26:15.565Z,11.15
2022-12-18T16:29:11.630Z,10.73
2022-12-18T16:32:09.466Z,9.95
2022-12-18T16:34:36.286Z,9.80
2022-12-18T16:37:10.224Z,9.13
2022-12-18T16:40:01.704Z,9.70
2022-12-18T16:42:50.244Z,9.43
2022-12-18T16:45:41.381Z,9.90
2022-12-18T16:48:38.167Z,10.93
2022-12-18T16:51:27.329Z,19.60
2022-12-18T16:54:19.921Z,13.30
2022-12-18T16:56:48.897Z,12.55
2022-12-18T16:59:47.476Z,9.80
2022-12-18T17:02:36.161Z,8.30
2022-12-18T17:05:29.150Z,9.18
2022-12-18T17:08:09.781Z,10.20
2022-12-18T17:11:03.443Z,9.90
2022-12-18T17:13:58.182Z,9.77
2022-12-18T17:16:19.121Z,10.05
2022-12-18T17:19:16.626Z,9.57
2022-12-18T17:22:17.367Z,9.43
2022-12-18T17:24:51.246Z,9.30
2022-12-18T17:27:46.293Z,9.02
2022-12-18T17:30:43.360Z,8.70
2022-12-18T17:33:28.141Z,8.80
2022-12-18T17:35:59.382Z,8.40
2022-12-18T17:38:57.069Z,8.73
2022-12-18T17:41:38.855Z,8.57
2022-12-18T17:44:36.394Z,7.88
2022-12-18T17:47:32.730Z,6.97
2022-12-18T17:50:05.870Z,5.55
2022-12-18T17:52:55.482Z,5.93
2022-12-18T17:55:43.671Z,5.82
2022-12-18T17:58:12.635Z,5.65
2022-12-18T18:00:41.571Z,6.20
2022-12-18T18:03:20.065Z,5.93
2022-12-18T18:06:00.552Z,5.63
2022-12-18T18:08:59.385Z,5.32
2022-12-18T18:12:12.541Z,5.43
2022-12-18T18:15:01.107Z,5.25
2022-12-18T18:17:52.195Z,5.20
2022-12-18T18:20:44.608Z,5.00
2022-12-18T18:23:36.275Z,5.90
2022-12-18T18:26:30.733Z,6.35
2022-12-18T18:29:29.012Z,6.65
2022-12-18T18:32:09.369Z,5.50
2022-12-18T18:34:57.820Z,5.30
2022-12-18T18:37:56.332Z,7.00
2022-12-18T18:40:37.023Z,5.60
2022-12-18T18:43:40.312Z,5.47
2022-12-18T18:46:25.373Z,5.90
2022-12-18T18:48:54.999Z,5.28
2022-12-18T18:51:31.474Z,5.80
2022-12-18T18:54:36.296Z,5.55
2022-12-18T18:57:19.991Z,5.70
2022-12-18T18:59:49.545Z,5.93
2022-12-18T19:02:18.237Z,4.90
2022-12-18T19:05:08.542Z,5.15
2022-12-18T19:08:04.799Z,4.75
2022-12-18T19:10:57.708Z,4.20
2022-12-18T19:13:45.324Z,4.03
2022-12-18T19:16:20.403Z,4.75
2022-12-18T19:19:16.215Z,4.45
2022-12-18T19:22:04.861Z,4.90
2022-12-18T19:25:12.142Z,4.85
2022-12-18T19:27:28.509Z,4.93
2022-12-18T19:30:18.703Z,3.92
2022-12-18T19:33:41.575Z,5.40
2022-12-18T19:35:41.727Z,4.93
2022-12-18T19:38:31.885Z,4.93
2022-12-18T19:41:02.090Z,5.15
2022-12-18T19:43:41.915Z,4.70
2022-12-18T19:46:42.170Z,5.38
2022-12-18T19:49:22.352Z,5.35
2022-12-18T19:52:25.837Z,5.53
2022-12-18T19:55:06.519Z,4.82
2022-12-18T19:58:03.357Z,5.65
2022-12-18T20:00:38.720Z,5.30
2022-12-18T20:03:38.747Z,5.13
2022-12-18T20:06:25.222Z,5.40
2022-12-18T20:09:19.427Z,5.70
2022-12-18T20:12:07.791Z,6.40
2022-12-18T20:14:41.233Z,6.43
2022-12-18T20:17:12.333Z,7.03
2022-12-18T20:19:40.438Z,6.53
2022-12-18T20:22:29.828Z,6.40
2022-12-18T20:25:19.956Z,6.47
2022-12-18T20:27:48.193Z,6.65
2022-12-18T20:30:27.231Z,7.35
2022-12-18T20:33:17.372Z,7.25
2022-12-18T20:35:43.700Z,7.50
2022-12-18T20:38:17.371Z,7.68
2022-12-18T20:41:08.024Z,7.32
2022-12-18T20:43:44.505Z,7.50
2022-12-18T20:46:44.862Z,7.63
2022-12-18T20:49:12.574Z,6.63
2022-12-18T20:52:05.191Z,7.75
2022-12-18T20:54:41.240Z,6.90
2022-12-18T20:57:31.313Z,6.80
2022-12-18T21:00:00.241Z,6.97
2022-12-18T21:02:54.796Z,6.65
2022-12-18T21:05:49.374Z,6.68
2022-12-18T21:08:30.106Z,7.32
2022-12-18T21:11:16.587Z,6.60
2022-12-18T21:14:06.362Z,7.35
2022-12-18T21:17:01.214Z,6.70
2022-12-18T21:19:34.122Z,7.97
2022-12-18T21:22:32.253Z,7.65
2022-12-18T21:25:10.395Z,6.93
2022-12-18T21:27:59.119Z,7.57
2022-12-18T21:30:59.832Z,7.57
2022-12-18T21:33:30.396Z,7.28
2022-12-18T21:36:20.393Z,7.95
2022-12-18T21:38:52.377Z,7.43
2022-12-18T21:42:12.865Z,7.57
2022-12-18T21:44:42.059Z,7.78
2022-12-18T21:47:22.091Z,6.88
2022-12-18T21:50:21.481Z,8.25
2022-12-18T21:53:15.694Z,7.30
2022-12-18T21:56:01.761Z,7.57
2022-12-18T21:58:31.861Z,7.30
2022-12-18T22:01:21.992Z,7.10
2022-12-18T22:04:18.492Z,7.95
2022-12-18T22:07:14.881Z,7.80
2022-12-18T22:09:50.219Z,7.90
2022-12-18T22:12:43.248Z,7.70
2022-12-18T22:15:40.235Z,8.02
2022-12-18T22:18:28.830Z,8.70
2022-12-18T22:21:32.990Z,7.80
2022-12-18T22:24:37.626Z,8.27
2022-12-18T22:27:01.599Z,6.95
2022-12-18T22:30:12.552Z,7.15
2022-12-18T22:32:59.713Z,7.18
2022-12-18T22:35:45.345Z,8.13
2022-12-18T22:41:12.081Z,7.82
2022-12-18T22:44:09.618Z,8.40
2022-12-18T22:46:52.407Z,7.38
2022-12-18T22:49:35.487Z,7.60
2022-12-18T22:52:28.552Z,7.25
2022-12-18T22:55:18.341Z,7.63
2022-12-18T22:58:05.377Z,7.25
2022-12-18T23:00:56.487Z,7.65
2022-12-18T23:03:50.772Z,8.48
2022-12-18T23:06:33.129Z,7.55
2022-12-18T23:09:21.525Z,6.75
2022-12-18T23:12:18.365Z,6.80
2022-12-18T23:15:14.400Z,7.05
2022-12-18T23:17:47.564Z,7.07
2022-12-18T23:20:43.808Z,7.35
2022-12-18T23:23:24.865Z,6.78
2022-12-18T23:26:23.678Z,6.57
2022-12-18T23:29:19.714Z,6.65
2022-12-18T23:32:01.855Z,7.40
2022-12-18T23:34:50.316Z,7.18
2022-12-18T23:37:57.487Z,7.32
2022-12-18T23:40:27.868Z,6.53
2022-12-18T23:43:32.451Z,8.27
2022-12-18T23:46:05.362Z,7.28
2022-12-18T23:48:53.725Z,7.55
2022-12-18T23:51:45.856Z,8.10
2022-12-18T23:54:34.303Z,7.43
2022-12-18T23:57:30.988Z,7.28
